Latest Weather Observations for Busselton Airport

IDW60801

Issued at 2:32 pm WST Thursday 5 March 2015 (issued every 30 minutes, with the page automatically refreshed every 10 minutes)

About weather observations | Map of weather stations | Latest weather observations for WA | Other Formats
Station Details ID: 009603 Name: BUSSELTON AERO Lat: -33.69 Lon: 115.40 Height: 16.3 m
Data from the previous 72 hours. | See also: Recent months at Busselton Airport
Date/Time
WST
Temp
°C
App
Temp
°C
Dew
Point
Rel
Hum
%
Delta-T
°C
Wind Press
QNH
hPa
Press
MSL
hPa
Rain
since 9 am
mm
Dir
 
Spd
km/h
Gust
km/h
Spd
kts
Gust
kts
05/02:30pm 31.0 28.5 10.9 29 11.5 SE 15 24 8 13 1021.6 1021.6 0.0
05/02:00pm 30.0 27.2 10.0 29 11.3 SE 15 30 8 16 1022.1 1022.1 0.0
05/01:30pm 29.5 27.9 11.5 33 10.4 SE 11 20 6 11 1022.5 1022.5 0.0
05/01:00pm 28.8 26.3 10.9 33 10.2 ESE 15 24 8 13 1023.0 1023.0 0.0
05/12:30pm 28.9 26.9 11.5 34 10.0 E 13 24 7 13 1023.5 1023.4 0.0
05/12:00pm 27.3 25.0 11.7 37 8.9 ESE 15 24 8 13 1023.9 1023.8 0.0
05/11:30am 26.7 24.9 12.0 40 8.5 E 13 22 7 12 1024.4 1024.3 0.0
05/11:00am 25.5 23.3 12.0 43 7.7 NE 15 24 8 13 1024.9 1024.8 0.0
05/10:30am 25.1 22.5 12.0 44 7.5 ENE 17 22 9 12 1025.1 1025.0 0.0
05/10:00am 23.6 20.9 11.6 47 6.7 NE 17 24 9 13 1025.4 1025.3 0.0
05/09:30am 23.1 19.9 11.8 49 6.4 NE 20 30 11 16 1025.4 1025.3 0.0
05/09:00am 21.8 18.3 12.1 54 5.4 E 22 28 12 15 1025.4 1025.3 0.0
05/08:30am 20.6 16.6 11.8 57 4.9 ENE 24 32 13 17 1025.5 1025.4 0.0
05/08:00am 19.4 15.4 11.7 61 4.2 E 24 32 13 17 1025.4 1025.3 0.0
05/07:30am 18.2 15.4 11.5 65 3.7 E 17 22 9 12 1025.3 1025.2 0.0
05/07:00am 16.9 14.8 11.2 69 3.1 ESE 13 17 7 9 1025.2 1025.1 0.0
05/06:30am 15.3 13.5 10.7 74 2.4 ESE 11 15 6 8 1024.9 1024.8 0.0
05/06:00am 15.1 12.8 10.5 74 2.4 ESE 13 15 7 8 1024.5 1024.4 0.0
05/05:30am 15.3 13.0 10.5 73 2.5 ESE 13 15 7 8 1024.1 1024.0 0.0
05/05:00am 15.7 13.0 10.5 71 2.7 ESE 15 19 8 10 1023.8 1023.7 0.0
05/04:30am 15.9 13.2 10.2 69 3.0 ESE 15 19 8 10 1023.7 1023.6 0.0
05/04:00am 16.5 13.9 10.6 68 3.1 ESE 15 20 8 11 1023.9 1023.8 0.0
05/03:30am 16.8 13.2 10.4 66 3.4 ESE 20 30 11 16 1023.7 1023.6 0.0
05/03:00am 17.2 13.0 9.9 62 3.8 ESE 22 28 12 15 1023.5 1023.4 0.0
05/02:30am 17.5 13.7 9.7 60 4.1 ESE 20 26 11 14 1023.6 1023.5 0.0
05/02:00am 18.0 13.5 9.9 59 4.3 ESE 24 32 13 17 1023.2 1023.2 0.0
05/01:30am 18.5 13.6 10.1 58 4.5 E 26 35 14 19 1023.2 1023.2 0.0
05/01:00am 19.1 14.2 10.1 56 4.8 E 26 33 14 18 1023.2 1023.2 0.0
05/12:30am 19.8 14.9 10.0 53 5.2 E 26 32 14 17 1023.3 1023.3 0.0
05/12:00am 20.3 15.7 9.8 51 5.6 E 24 30 13 16 1023.3 1023.3 0.0
 
Date/Time
WST
Temp
°C
App
Temp
°C
Dew
Point
Rel
Hum
%
Delta-T
°C
Wind Press
QNH
hPa
Press
MSL
hPa
Rain
since 9 am
mm
Dir
 
Spd
km/h
Gust
km/h
Spd
kts
Gust
kts
04/11:30pm 21.1 16.5 9.7 48 6.1 ESE 24 30 13 16 1022.9 1022.9 0.0
04/11:00pm 21.6 16.7 9.8 47 6.3 ESE 26 37 14 20 1022.8 1022.8 0.0
04/10:30pm 22.1 17.9 9.9 46 6.6 ESE 22 32 12 17 1022.9 1022.9 0.0
04/10:00pm 22.4 18.1 10.9 48 6.3 SE 24 30 13 16 1022.9 1022.9 0.0
04/09:30pm 21.9 18.2 11.6 52 5.8 SE 22 30 12 16 1023.0 1023.0 0.0
04/09:00pm 21.6 18.1 12.2 55 5.3 SSE 22 30 12 16 1022.7 1022.7 0.0
04/08:30pm 21.7 18.0 12.8 57 5.1 SSE 24 32 13 17 1022.4 1022.4 0.0
04/08:00pm 21.7 18.0 12.8 57 5.1 S 24 32 13 17 1022.0 1022.0 0.0
04/07:30pm 22.1 18.5 12.9 56 5.3 S 24 32 13 17 1021.8 1021.8 0.0
04/07:00pm 23.0 19.0 12.9 53 5.8 S 26 35 14 19 1021.4 1021.4 0.0
04/06:30pm 24.6 20.4 12.5 46 7.0 S 26 33 14 18 1021.1 1021.1 0.0
04/06:00pm 25.9 20.7 12.7 44 7.6 SSW 32 39 17 21 1020.8 1020.8 0.0
04/05:30pm 27.3 22.0 12.5 40 8.6 SSW 32 37 17 20 1020.6 1020.6 0.0
04/05:00pm 28.7 24.4 12.2 36 9.6 S 26 37 14 20 1020.3 1020.3 0.0
04/04:30pm 30.8 27.0 9.1 26 12.1 SSE 19 28 10 15 1020.1 1020.1 0.0
04/04:00pm 30.4 27.4 9.3 27 11.8 SE 15 24 8 13 1020.1 1020.1 0.0
04/03:30pm 30.8 27.9 9.6 27 12.0 SE 15 28 8 15 1020.2 1020.2 0.0
04/03:00pm 30.2 27.5 10.2 29 11.3 E 15 24 8 13 1020.5 1020.5 0.0
04/02:30pm 30.0 27.0 10.5 30 11.1 E 17 26 9 14 1020.8 1020.8 0.0
04/02:00pm 28.7 26.5 10.8 33 10.2 ESE 13 19 7 10 1021.2 1021.2 0.0
04/01:30pm 28.3 25.8 10.9 34 9.9 SSE 15 26 8 14 1021.5 1021.5 0.0
04/01:00pm 27.9 24.5 10.6 34 9.7 ESE 19 28 10 15 1021.8 1021.8 0.0
04/12:30pm 27.8 24.9 10.9 35 9.6 ESE 17 32 9 17 1022.2 1022.2 0.0
04/12:00pm 26.7 23.4 10.8 37 8.9 ESE 19 28 10 15 1022.6 1022.6 0.0
04/11:30am 25.2 21.7 10.3 39 8.3 ESE 19 30 10 16 1023.2 1023.2 0.0
04/11:00am 24.7 21.1 10.6 41 7.8 ESE 20 30 11 16 1023.7 1023.6 0.0
04/10:30am 23.8 19.3 10.1 42 7.5 SE 24 33 13 18 1024.1 1024.0 0.0
04/10:00am 22.6 19.0 10.4 46 6.7 SE 20 28 11 15 1024.3 1024.2 0.0
04/09:30am 21.5 17.5 10.3 49 6.1 SE 22 30 12 16 1024.4 1024.3 0.0
04/09:00am 19.9 16.3 10.6 55 5.0 SE 20 28 11 15 1024.5 1024.4 0.0
04/08:30am 18.7 15.2 10.8 60 4.3 ESE 20 28 11 15 1024.5 1024.4 0.0
04/08:00am 17.3 13.7 10.7 65 3.5 ESE 20 28 11 15 1024.5 1024.4 0.0
04/07:30am 16.2 13.7 10.9 71 2.8 SE 15 19 8 10 1024.2 1024.1 0.0
04/07:00am 14.0 11.7 10.4 79 1.9 S 13 17 7 9 1023.9 1023.8 0.0
04/06:30am 11.8 9.1 9.0 83 1.4 S 13 15 7 8 1023.8 1023.7 0.0
04/06:00am 11.6 8.5 9.0 84 1.3 S 15 17 8 9 1023.5 1023.4 0.0
04/05:30am 11.6 9.2 8.5 81 1.5 S 11 13 6 7 1023.1 1023.1 0.0
04/05:00am 13.2 11.0 9.5 78 1.9 SSE 11 13 6 7 1022.9 1022.9 0.0
04/04:30am 13.5 11.4 9.7 78 1.9 SE 11 15 6 8 1022.7 1022.7 0.0
04/04:00am 13.4 11.2 9.5 77 2.0 SE 11 15 6 8 1022.3 1022.3 0.0
04/03:30am 14.2 11.7 9.6 74 2.4 ESE 13 17 7 9 1022.2 1022.2 0.0
04/03:00am 14.5 11.6 9.7 73 2.5 SE 15 19 8 10 1022.0 1022.0 0.0
04/02:30am 14.0 11.8 9.4 74 2.4 SSE 11 17 6 9 1022.0 1022.0 0.0
04/02:00am 14.1 11.1 9.3 73 2.4 SSE 15 17 8 9 1021.9 1021.9 0.0
04/01:30am 14.9 12.3 9.5 70 2.8 SSE 13 15 7 8 1021.9 1021.9 0.0
04/01:00am 15.7 12.8 9.8 68 3.1 SE 15 20 8 11 1021.7 1021.7 0.0
04/12:30am 15.9 12.7 10.0 68 3.1 SE 17 20 9 11 1022.1 1022.1 0.0
04/12:00am 16.3 13.2 10.2 67 3.2 SE 17 22 9 12 1022.2 1022.2 0.0
 
Date/Time
WST
Temp
°C
App
Temp
°C
Dew
Point
Rel
Hum
%
Delta-T
°C
Wind Press
QNH
hPa
Press
MSL
hPa
Rain
since 9 am
mm
Dir
 
Spd
km/h
Gust
km/h
Spd
kts
Gust
kts
03/11:30pm 16.4 12.9 10.3 67 3.2 SSE 19 26 10 14 1022.3 1022.3 0.0
03/11:00pm 16.7 13.1 10.5 67 3.3 SSE 20 26 11 14 1022.5 1022.5 0.0
03/10:30pm 16.9 12.9 10.5 66 3.4 S 22 28 12 15 1022.3 1022.3 0.0
03/10:00pm 17.2 13.2 10.6 65 3.5 SSE 22 30 12 16 1022.1 1022.1 0.0
03/09:30pm 17.6 12.5 10.7 64 3.7 S 28 35 15 19 1022.1 1022.1 0.0
03/09:00pm 17.9 12.9 10.8 63 3.8 S 28 39 15 21 1021.8 1021.8 0.0
03/08:30pm 18.3 13.3 11.1 63 3.9 S 28 35 15 19 1021.6 1021.6 0.0
03/08:00pm 18.8 13.8 11.1 61 4.2 S 28 35 15 19 1021.3 1021.3 0.0
03/07:30pm 19.2 14.7 11.3 60 4.3 S 26 39 14 21 1020.8 1020.8 0.0
03/07:00pm 19.8 14.9 11.3 58 4.7 S 28 41 15 22 1020.4 1020.4 0.0
03/06:30pm 21.1 15.8 11.4 54 5.4 S 30 43 16 23 1020.3 1020.3 0.0
03/06:00pm 22.8 17.3 11.8 50 6.2 S 32 41 17 22 1020.0 1020.0 0.0
03/05:30pm 24.0 18.5 11.7 46 7.0 S 32 43 17 23 1019.6 1019.6 0.0
03/05:00pm 25.8 20.1 11.9 42 7.9 S 33 44 18 24 1019.3 1019.3 0.0
03/04:30pm 25.7 19.6 11.8 42 7.9 SSW 35 46 19 25 1019.4 1019.4 0.0
03/04:00pm 26.6 20.5 11.9 40 8.4 SSW 35 43 19 23 1019.3 1019.3 0.0
03/03:30pm 27.7 22.1 12.1 38 9.0 S 33 46 18 25 1019.3 1019.3 0.0
03/03:00pm 28.1 24.7 11.2 35 9.6 SSE 20 33 11 18 1019.2 1019.2 0.0
03/02:30pm 28.0 25.1 11.1 35 9.6 SSE 17 30 9 16 1019.5 1019.5 0.0
03/02:00pm 27.0 23.8 11.1 37 9.0 SSE 19 33 10 18 1019.8 1019.8 0.0
03/01:30pm 27.3 24.1 11.3 37 9.1 S 19 28 10 15 1020.2 1020.2 0.0
03/01:00pm 25.7 22.6 11.5 41 8.0 SSE 19 28 10 15 1020.5 1020.5 0.0
03/12:30pm 26.4 24.6 12.1 41 8.2 SE 13 26 7 14 1020.9 1020.9 0.0
03/12:00pm 25.0 21.9 11.6 43 7.6 ESE 19 28 10 15 1021.5 1021.5 0.0
03/11:30am 24.5 21.5 11.8 45 7.2 ESE 19 30 10 16 1021.8 1021.8 0.0
03/11:00am 23.6 20.4 12.0 48 6.6 ESE 20 32 11 17 1022.2 1022.2 0.0
03/10:30am 22.8 19.1 11.5 49 6.3 SE 22 32 12 17 1022.7 1022.7 0.0
03/10:00am 21.5 18.1 11.2 52 5.7 SE 20 28 11 15 1022.7 1022.7 0.0
03/09:30am 20.6 16.4 11.0 54 5.3 SE 24 33 13 18 1022.9 1022.9 0.0
03/09:00am 19.3 14.6 10.8 58 4.6 SE 26 33 14 18 1023.1 1023.1 0.0
03/08:30am 18.2 13.4 10.3 60 4.2 SE 26 33 14 18 1023.3 1023.3 0.0
03/08:00am 17.3 12.8 10.2 63 3.7 SE 24 30 13 16 1023.2 1023.2 0.0
03/07:30am 15.2 11.8 9.1 67 3.1 SSE 17 20 9 11 1023.3 1023.3 0.0
03/07:00am 13.7 10.6 8.7 72 2.5 SSE 15 19 8 10 1023.3 1023.3 0.0
03/06:30am 12.2 8.9 8.1 76 2.0 S 15 17 8 9 1023.0 1023.0 0.0
03/06:00am 11.6 8.2 7.5 76 2.0 S 15 17 8 9 1022.8 1022.8 0.0
03/05:30am 11.6 8.1 7.3 75 2.1 S 15 17 8 9 1022.6 1022.6 0.0
03/05:00am 11.2 8.0 6.9 75 2.0 SSW 13 17 7 9 1022.4 1022.4 0.0
03/04:30am 12.1 9.7 7.2 72 2.4 S 9 13 5 7 1022.0 1022.0 0.0
03/04:00am 12.8 9.8 7.5 70 2.6 S 13 17 7 9 1021.9 1021.9 0.0
03/03:30am 12.8 10.8 7.3 69 2.7 S 7 9 4 5 1022.0 1022.0 0.0
03/03:00am 13.3 10.7 7.7 69 2.7 SSE 11 15 6 8 1021.9 1021.9 0.0
03/02:30am 13.8 10.1 7.8 67 3.0 SE 17 22 9 12 1021.8 1021.8 0.0
03/02:00am 14.3 10.2 7.8 65 3.2 SE 19 24 10 13 1021.6 1021.6 0.0
03/01:30am 14.6 11.3 8.1 65 3.2 SE 15 22 8 12 1021.8 1021.8 0.0
03/01:00am 14.7 10.1 8.2 65 3.2 SE 22 32 12 17 1021.8 1021.8 0.0
03/12:30am 15.2 10.7 8.4 64 3.4 SE 22 30 12 16 1021.5 1021.5 0.0
03/12:00am 15.5 10.6 8.5 63 3.5 SE 24 33 13 18 1021.4 1021.4 0.0
 
Date/Time
WST
Temp
°C
App
Temp
°C
Dew
Point
Rel
Hum
%
Delta-T
°C
Wind Press
QNH
hPa
Press
MSL
hPa
Rain
since 9 am
mm
Dir
 
Spd
km/h
Gust
km/h
Spd
kts
Gust
kts
02/11:30pm 15.5 10.7 9.0 65 3.3 SE 24 32 13 17 1021.4 1021.4 0.0
02/11:00pm 15.6 11.2 9.1 65 3.3 SE 22 32 12 17 1021.3 1021.3 0.0
02/10:30pm 16.1 11.8 9.5 65 3.4 SSE 22 32 12 17 1021.4 1021.4 0.0
02/10:00pm 16.5 12.9 9.9 65 3.5 SE 19 24 10 13 1021.4 1021.4 0.0
02/09:30pm 16.5 13.2 9.7 64 3.6 SSE 17 26 9 14 1021.2 1021.2 0.0
02/09:00pm 17.4 13.9 10.1 62 3.9 SE 19 24 10 13 1020.8 1020.8 0.0
02/08:30pm 17.7 14.2 10.3 62 3.9 SE 19 24 10 13 1020.3 1020.3 0.0
02/08:00pm 18.3 14.4 10.7 61 4.1 SSE 22 30 12 16 1019.8 1019.8 0.0
02/07:30pm 18.9 15.0 10.7 59 4.4 SE 22 30 12 16 1019.2 1019.2 0.0
02/07:00pm 19.5 14.9 11.0 58 4.6 SSE 26 39 14 21 1018.7 1018.7 0.0
02/06:30pm 20.6 15.3 11.2 55 5.2 SSE 30 39 16 21 1018.2 1018.2 0.0
02/06:00pm 21.8 15.9 11.2 51 5.9 SSE 33 43 18 23 1017.8 1017.8 0.0
02/05:30pm 22.7 17.0 11.7 49 6.2 S 33 44 18 24 1017.5 1017.5 0.0
02/05:00pm 24.3 19.2 11.9 45 7.0 S 30 37 16 20 1017.2 1017.2 0.0
02/04:30pm 24.4 19.1 11.4 44 7.3 S 30 43 16 23 1016.8 1016.8 0.0
02/04:00pm 23.5 17.7 10.9 45 7.0 S 32 41 17 22 1016.6 1016.6 0.0
02/03:30pm 25.1 19.7 10.9 41 8.0 S 30 43 16 23 1016.4 1016.4 0.0
02/03:00pm 25.3 19.8 10.7 40 8.2 SSE 30 48 16 26 1016.3 1016.3 0.0
02/02:57pm 25.7 20.2 10.7 39 8.4 SSE 30 48 16 26 1016.4 1016.4 0.0

Other Formats:

Comma delimited format used in spreadsheet applications
http://www.bom.gov.au/fwo/IDW60801/IDW60801.95611.axf

JavaScript Object Notation format (JSON) in row-major order
http://www.bom.gov.au/fwo/IDW60801/IDW60801.95611.json